sensor_id;sensor_type;location;lat;lon;timestamp;pressure;altitude;pressure_sealevel;temperature;humidity
34482;BME280;20720;48.886;9.388;2022-09-17T00:00:10;97882.94;;;12.02;100.00
34482;BME280;20720;48.886;9.388;2022-09-17T00:02:36;97887.28;;;12.33;100.00
34482;BME280;20720;48.886;9.388;2022-09-17T00:05:01;97894.66;;;12.24;100.00
34482;BME280;20720;48.886;9.388;2022-09-17T00:07:27;97887.72;;;11.94;100.00
34482;BME280;20720;48.886;9.388;2022-09-17T00:09:52;97886.72;;;12.13;100.00
34482;BME280;20720;48.886;9.388;2022-09-17T00:12:17;97887.84;;;12.17;100.00
34482;BME280;20720;48.886;9.388;2022-09-17T00:14:42;97893.94;;;12.17;100.00
34482;BME280;20720;48.886;9.388;2022-09-17T00:17:08;97901.84;;;11.99;100.00
34482;BME280;20720;48.886;9.388;2022-09-17T00:19:34;97894.28;;;12.21;100.00
34482;BME280;20720;48.886;9.388;2022-09-17T00:22:00;97902.25;;;12.32;100.00
34482;BME280;20720;48.886;9.388;2022-09-17T00:24:25;97909.28;;;12.02;100.00
34482;BME280;20720;48.886;9.388;2022-09-17T00:26:50;97902.09;;;11.73;100.00
34482;BME280;20720;48.886;9.388;2022-09-17T00:29:16;97907.50;;;11.96;100.00
34482;BME280;20720;48.886;9.388;2022-09-17T00:31:41;97907.16;;;12.29;100.00
34482;BME280;20720;48.886;9.388;2022-09-17T00:34:07;97900.31;;;12.28;100.00
34482;BME280;20720;48.886;9.388;2022-09-17T00:36:36;97903.06;;;12.33;100.00
34482;BME280;20720;48.886;9.388;2022-09-17T00:39:01;97905.25;;;12.54;100.00
34482;BME280;20720;48.886;9.388;2022-09-17T00:41:28;97912.66;;;12.46;100.00
34482;BME280;20720;48.886;9.388;2022-09-17T00:43:55;97909.16;;;12.34;100.00
34482;BME280;20720;48.886;9.388;2022-09-17T00:48:46;97910.59;;;12.48;100.00
34482;BME280;20720;48.886;9.388;2022-09-17T00:51:13;97913.53;;;12.40;100.00
34482;BME280;20720;48.886;9.388;2022-09-17T00:53:39;97907.38;;;12.46;100.00
34482;BME280;20720;48.886;9.388;2022-09-17T00:56:07;97909.59;;;12.12;100.00
34482;BME280;20720;48.886;9.388;2022-09-17T00:58:33;97908.19;;;12.46;100.00
34482;BME280;20720;48.886;9.388;2022-09-17T01:01:00;97917.03;;;12.52;100.00
34482;BME280;20720;48.886;9.388;2022-09-17T01:03:25;97914.16;;;12.53;100.00
34482;BME280;20720;48.886;9.388;2022-09-17T01:09:12;97916.44;;;12.68;100.00
34482;BME280;20720;48.886;9.388;2022-09-17T01:11:26;97918.66;;;12.53;100.00
34482;BME280;20720;48.886;9.388;2022-09-17T01:21:34;97908.41;;;12.26;100.00
34482;BME280;20720;48.886;9.388;2022-09-17T01:26:54;97910.91;;;12.21;100.00
34482;BME280;20720;48.886;9.388;2022-09-17T01:29:33;97912.81;;;12.32;100.00
34482;BME280;20720;48.886;9.388;2022-09-17T01:35:11;97912.81;;;12.51;100.00
34482;BME280;20720;48.886;9.388;2022-09-17T01:37:15;97904.59;;;12.41;100.00
34482;BME280;20720;48.886;9.388;2022-09-17T01:39:55;97902.38;;;11.83;100.00
34482;BME280;20720;48.886;9.388;2022-09-17T01:42:26;97888.34;;;11.89;100.00
34482;BME280;20720;48.886;9.388;2022-09-17T01:44:59;97899.91;;;12.24;100.00
34482;BME280;20720;48.886;9.388;2022-09-17T01:49:53;97905.72;;;12.33;100.00
34482;BME280;20720;48.886;9.388;2022-09-17T01:52:19;97903.44;;;12.00;100.00
34482;BME280;20720;48.886;9.388;2022-09-17T01:54:46;97902.38;;;11.83;100.00
34482;BME280;20720;48.886;9.388;2022-09-17T02:00:00;97902.38;;;11.83;100.00
34482;BME280;20720;48.886;9.388;2022-09-17T02:02:28;97899.94;;;12.06;100.00
34482;BME280;20720;48.886;9.388;2022-09-17T02:04:56;97897.50;;;11.87;100.00
34482;BME280;20720;48.886;9.388;2022-09-17T02:07:23;97893.31;;;11.79;100.00
34482;BME280;20720;48.886;9.388;2022-09-17T02:10:11;97890.63;;;11.61;100.00
34482;BME280;20720;48.886;9.388;2022-09-17T02:12:40;97895.88;;;11.61;100.00
34482;BME280;20720;48.886;9.388;2022-09-17T02:15:08;97895.53;;;11.82;100.00
34482;BME280;20720;48.886;9.388;2022-09-17T02:17:38;97889.72;;;11.49;100.00
34482;BME280;20720;48.886;9.388;2022-09-17T02:20:07;97896.25;;;11.71;100.00
34482;BME280;20720;48.886;9.388;2022-09-17T02:22:38;97891.13;;;11.76;100.00
34482;BME280;20720;48.886;9.388;2022-09-17T02:27:51;97896.47;;;11.63;100.00
34482;BME280;20720;48.886;9.388;2022-09-17T02:30:19;97890.03;;;11.59;100.00
34482;BME280;20720;48.886;9.388;2022-09-17T02:32:44;97896.47;;;11.63;100.00
34482;BME280;20720;48.886;9.388;2022-09-17T02:35:10;97897.47;;;11.62;100.00
34482;BME280;20720;48.886;9.388;2022-09-17T02:37:37;97898.44;;;11.74;100.00
34482;BME280;20720;48.886;9.388;2022-09-17T02:40:03;97891.63;;;11.67;100.00
34482;BME280;20720;48.886;9.388;2022-09-17T02:50:53;97886.81;;;11.57;100.00
34482;BME280;20720;48.886;9.388;2022-09-17T02:53:30;97899.88;;;11.70;100.00
34482;BME280;20720;48.886;9.388;2022-09-17T02:56:08;97892.22;;;11.62;100.00
34482;BME280;20720;48.886;9.388;2022-09-17T03:01:22;97884.03;;;11.52;100.00
34482;BME280;20720;48.886;9.388;2022-09-17T03:03:49;97888.63;;;11.81;100.00
34482;BME280;20720;48.886;9.388;2022-09-17T03:06:16;97890.47;;;11.56;100.00
34482;BME280;20720;48.886;9.388;2022-09-17T03:08:42;97894.72;;;11.82;100.00
34482;BME280;20720;48.886;9.388;2022-09-17T03:11:07;97892.72;;;11.77;100.00
34482;BME280;20720;48.886;9.388;2022-09-17T03:13:34;97892.97;;;11.94;100.00
34482;BME280;20720;48.886;9.388;2022-09-17T03:16:01;97902.09;;;11.73;100.00
34482;BME280;20720;48.886;9.388;2022-09-17T03:18:26;97900.91;;;11.69;100.00
34482;BME280;20720;48.886;9.388;2022-09-17T03:20:51;97896.66;;;11.68;100.00
34482;BME280;20720;48.886;9.388;2022-09-17T03:23:16;97901.06;;;11.92;100.00
34482;BME280;20720;48.886;9.388;2022-09-17T03:25:41;97906.41;;;11.86;100.00
34482;BME280;20720;48.886;9.388;2022-09-17T03:28:07;97901.19;;;11.79;100.00
34482;BME280;20720;48.886;9.388;2022-09-17T03:30:32;97890.81;;;11.66;100.00
34482;BME280;20720;48.886;9.388;2022-09-17T03:32:57;97910.00;;;11.91;100.00
34482;BME280;20720;48.886;9.388;2022-09-17T03:35:22;97905.81;;;11.59;100.00
34482;BME280;20720;48.886;9.388;2022-09-17T03:37:47;97905.88;;;11.77;100.00
34482;BME280;20720;48.886;9.388;2022-09-17T03:40:12;97912.66;;;11.67;100.00
34482;BME280;20720;48.886;9.388;2022-09-17T03:42:38;97909.25;;;11.35;100.00
34482;BME280;20720;48.886;9.388;2022-09-17T03:45:03;97904.59;;;11.62;100.00
34482;BME280;20720;48.886;9.388;2022-09-17T03:47:29;97915.72;;;11.39;100.00
34482;BME280;20720;48.886;9.388;2022-09-17T03:49:54;97908.44;;;11.34;100.00
34482;BME280;20720;48.886;9.388;2022-09-17T03:52:19;97912.19;;;11.45;100.00
34482;BME280;20720;48.886;9.388;2022-09-17T03:54:45;97911.03;;;11.16;100.00
34482;BME280;20720;48.886;9.388;2022-09-17T03:57:10;97908.31;;;11.54;100.00
34482;BME280;20720;48.886;9.388;2022-09-17T03:59:35;97921.75;;;11.64;100.00
34482;BME280;20720;48.886;9.388;2022-09-17T04:02:00;97921.75;;;11.39;100.00
34482;BME280;20720;48.886;9.388;2022-09-17T04:04:25;97921.22;;;11.56;100.00
34482;BME280;20720;48.886;9.388;2022-09-17T04:06:51;97920.44;;;10.99;100.00
34482;BME280;20720;48.886;9.388;2022-09-17T04:09:16;97913.59;;;11.23;100.00
34482;BME280;20720;48.886;9.388;2022-09-17T04:11:41;97918.03;;;11.22;100.00
34482;BME280;20720;48.886;9.388;2022-09-17T04:14:06;97910.16;;;11.22;100.00
34482;BME280;20720;48.886;9.388;2022-09-17T04:16:31;97916.00;;;11.49;100.00
34482;BME280;20720;48.886;9.388;2022-09-17T04:18:56;97923.97;;;11.11;100.00
34482;BME280;20720;48.886;9.388;2022-09-17T04:21:22;97921.06;;;11.26;100.00
34482;BME280;20720;48.886;9.388;2022-09-17T04:23:47;97913.25;;;11.13;100.00
34482;BME280;20720;48.886;9.388;2022-09-17T04:26:12;97916.22;;;11.23;100.00
34482;BME280;20720;48.886;9.388;2022-09-17T04:28:38;97912.69;;;11.60;100.00
34482;BME280;20720;48.886;9.388;2022-09-17T04:31:03;97917.28;;;11.47;100.00
34482;BME280;20720;48.886;9.388;2022-09-17T04:33:28;97922.91;;;11.50;100.00
34482;BME280;20720;48.886;9.388;2022-09-17T04:35:53;97923.00;;;11.37;100.00
34482;BME280;20720;48.886;9.388;2022-09-17T04:38:19;97916.34;;;11.59;100.00
34482;BME280;20720;48.886;9.388;2022-09-17T04:40:46;97925.56;;;11.44;100.00
34482;BME280;20720;48.886;9.388;2022-09-17T04:43:11;97927.56;;;11.48;100.00
34482;BME280;20720;48.886;9.388;2022-09-17T04:45:36;97931.00;;;11.24;100.00
34482;BME280;20720;48.886;9.388;2022-09-17T04:48:01;97932.94;;;11.35;100.00
34482;BME280;20720;48.886;9.388;2022-09-17T04:50:26;97937.50;;;11.46;100.00
34482;BME280;20720;48.886;9.388;2022-09-17T04:52:52;97942.78;;;11.39;100.00
34482;BME280;20720;48.886;9.388;2022-09-17T04:55:17;97932.84;;;11.17;100.00
34482;BME280;20720;48.886;9.388;2022-09-17T04:57:46;97926.75;;;10.92;100.00
34482;BME280;20720;48.886;9.388;2022-09-17T05:00:12;97931.72;;;11.00;100.00
34482;BME280;20720;48.886;9.388;2022-09-17T05:02:37;97933.38;;;10.94;100.00
34482;BME280;20720;48.886;9.388;2022-09-17T05:05:02;97934.03;;;10.90;100.00
34482;BME280;20720;48.886;9.388;2022-09-17T05:07:28;97940.34;;;10.82;100.00
34482;BME280;20720;48.886;9.388;2022-09-17T05:09:53;97932.75;;;11.30;100.00
34482;BME280;20720;48.886;9.388;2022-09-17T05:12:18;97943.78;;;11.14;100.00
34482;BME280;20720;48.886;9.388;2022-09-17T05:14:44;97949.13;;;11.01;100.00
34482;BME280;20720;48.886;9.388;2022-09-17T05:17:09;97955.56;;;11.05;100.00
34482;BME280;20720;48.886;9.388;2022-09-17T05:19:34;97957.31;;;10.80;100.00
34482;BME280;20720;48.886;9.388;2022-09-17T05:21:59;97952.88;;;11.18;100.00
34482;BME280;20720;48.886;9.388;2022-09-17T05:24:24;97959.81;;;11.37;100.00
34482;BME280;20720;48.886;9.388;2022-09-17T05:26:51;97961.50;;;11.56;100.00
34482;BME280;20720;48.886;9.388;2022-09-17T05:29:16;97977.59;;;11.42;100.00
34482;BME280;20720;48.886;9.388;2022-09-17T05:31:41;97977.97;;;11.45;100.00
34482;BME280;20720;48.886;9.388;2022-09-17T05:34:07;97980.13;;;11.55;100.00
34482;BME280;20720;48.886;9.388;2022-09-17T05:36:32;97983.28;;;11.38;100.00
34482;BME280;20720;48.886;9.388;2022-09-17T05:38:57;97983.31;;;11.32;100.00
34482;BME280;20720;48.886;9.388;2022-09-17T05:41:22;97993.72;;;11.52;100.00
34482;BME280;20720;48.886;9.388;2022-09-17T05:43:48;97993.22;;;11.30;100.00
34482;BME280;20720;48.886;9.388;2022-09-17T05:46:13;97991.97;;;11.39;100.00
34482;BME280;20720;48.886;9.388;2022-09-17T05:48:38;97996.44;;;11.94;100.00
34482;BME280;20720;48.886;9.388;2022-09-17T05:51:03;97995.69;;;11.87;100.00
34482;BME280;20720;48.886;9.388;2022-09-17T05:53:28;98013.31;;;12.11;100.00
34482;BME280;20720;48.886;9.388;2022-09-17T05:55:57;98008.16;;;11.43;100.00
34482;BME280;20720;48.886;9.388;2022-09-17T05:58:23;98012.34;;;12.06;100.00
34482;BME280;20720;48.886;9.388;2022-09-17T06:00:48;98020.56;;;11.91;100.00
34482;BME280;20720;48.886;9.388;2022-09-17T06:03:14;98017.16;;;11.53;100.00
34482;BME280;20720;48.886;9.388;2022-09-17T06:05:40;98020.59;;;11.85;100.00
34482;BME280;20720;48.886;9.388;2022-09-17T06:08:06;98023.09;;;12.04;100.00
34482;BME280;20720;48.886;9.388;2022-09-17T06:10:31;98030.03;;;12.42;100.00
34482;BME280;20720;48.886;9.388;2022-09-17T06:12:59;98032.59;;;12.30;100.00
34482;BME280;20720;48.886;9.388;2022-09-17T06:15:25;98042.13;;;11.44;100.00
34482;BME280;20720;48.886;9.388;2022-09-17T06:17:50;98027.44;;;11.61;100.00
34482;BME280;20720;48.886;9.388;2022-09-17T06:20:16;98031.75;;;11.49;100.00
34482;BME280;20720;48.886;9.388;2022-09-17T06:22:42;98034.47;;;11.74;100.00
34482;BME280;20720;48.886;9.388;2022-09-17T06:25:07;98031.94;;;11.54;100.00
34482;BME280;20720;48.886;9.388;2022-09-17T06:27:33;98032.88;;;11.35;100.00
34482;BME280;20720;48.886;9.388;2022-09-17T06:29:58;98035.44;;;11.79;100.00
34482;BME280;20720;48.886;9.388;2022-09-17T06:32:24;98041.56;;;11.73;100.00
34482;BME280;20720;48.886;9.388;2022-09-17T06:34:49;98044.91;;;12.11;100.00
34482;BME280;20720;48.886;9.388;2022-09-17T06:37:14;98042.63;;;11.59;100.00
34482;BME280;20720;48.886;9.388;2022-09-17T06:39:40;98046.41;;;12.01;100.00
34482;BME280;20720;48.886;9.388;2022-09-17T06:42:05;98047.59;;;12.05;100.00
34482;BME280;20720;48.886;9.388;2022-09-17T06:44:30;98049.88;;;11.70;100.00
34482;BME280;20720;48.886;9.388;2022-09-17T06:46:56;98053.66;;;11.43;100.00
34482;BME280;20720;48.886;9.388;2022-09-17T06:49:21;98054.31;;;12.25;100.00
34482;BME280;20720;48.886;9.388;2022-09-17T06:51:46;98058.66;;;11.89;100.00
34482;BME280;20720;48.886;9.388;2022-09-17T06:54:11;98066.81;;;11.81;100.00
34482;BME280;20720;48.886;9.388;2022-09-17T06:56:36;98065.44;;;12.03;100.00
34482;BME280;20720;48.886;9.388;2022-09-17T06:59:02;98071.22;;;12.11;100.00
34482;BME280;20720;48.886;9.388;2022-09-17T07:01:27;98071.81;;;11.89;100.00
34482;BME280;20720;48.886;9.388;2022-09-17T07:03:52;98065.16;;;11.86;100.00
34482;BME280;20720;48.886;9.388;2022-09-17T07:06:18;98067.63;;;11.81;100.00
34482;BME280;20720;48.886;9.388;2022-09-17T07:08:44;98069.34;;;11.69;100.00
34482;BME280;20720;48.886;9.388;2022-09-17T07:11:11;98056.81;;;11.58;100.00
34482;BME280;20720;48.886;9.388;2022-09-17T07:13:36;98056.09;;;11.82;100.00
34482;BME280;20720;48.886;9.388;2022-09-17T07:16:02;98060.47;;;11.57;100.00
34482;BME280;20720;48.886;9.388;2022-09-17T07:18:28;98060.63;;;11.62;100.00
34482;BME280;20720;48.886;9.388;2022-09-17T07:21:04;98055.78;;;11.21;100.00
34482;BME280;20720;48.886;9.388;2022-09-17T07:23:30;98046.16;;;11.09;100.00
34482;BME280;20720;48.886;9.388;2022-09-17T07:26:06;98034.59;;;11.54;100.00
34482;BME280;20720;48.886;9.388;2022-09-17T07:28:31;98043.13;;;11.43;100.00
34482;BME280;20720;48.886;9.388;2022-09-17T07:30:56;98035.88;;;11.38;100.00
34482;BME280;20720;48.886;9.388;2022-09-17T07:33:22;98032.19;;;11.46;100.00
34482;BME280;20720;48.886;9.388;2022-09-17T07:35:55;98034.72;;;11.28;100.00
34482;BME280;20720;48.886;9.388;2022-09-17T07:38:21;98037.47;;;11.39;100.00
34482;BME280;20720;48.886;9.388;2022-09-17T07:40:59;98035.44;;;11.48;100.00
34482;BME280;20720;48.886;9.388;2022-09-17T07:43:25;98034.66;;;11.79;100.00
34482;BME280;20720;48.886;9.388;2022-09-17T07:45:51;98038.78;;;11.62;100.00
34482;BME280;20720;48.886;9.388;2022-09-17T07:48:17;98039.59;;;11.93;100.00
34482;BME280;20720;48.886;9.388;2022-09-17T07:50:42;98046.31;;;11.14;100.00
34482;BME280;20720;48.886;9.388;2022-09-17T07:53:07;98039.44;;;11.51;100.00
34482;BME280;20720;48.886;9.388;2022-09-17T07:55:32;98047.03;;;11.34;100.00
34482;BME280;20720;48.886;9.388;2022-09-17T07:57:57;98043.31;;;11.10;100.00
34482;BME280;20720;48.886;9.388;2022-09-17T08:00:23;98042.88;;;11.20;100.00
34482;BME280;20720;48.886;9.388;2022-09-17T08:02:51;98054.00;;;11.15;100.00
34482;BME280;20720;48.886;9.388;2022-09-17T08:05:16;98055.72;;;11.34;100.00
34482;BME280;20720;48.886;9.388;2022-09-17T08:07:42;98052.13;;;11.22;100.00
34482;BME280;20720;48.886;9.388;2022-09-17T08:10:07;98058.84;;;11.56;100.00
34482;BME280;20720;48.886;9.388;2022-09-17T08:12:33;98059.72;;;11.81;100.00
34482;BME280;20720;48.886;9.388;2022-09-17T08:14:58;98056.63;;;12.15;100.00
34482;BME280;20720;48.886;9.388;2022-09-17T08:17:23;98065.78;;;11.44;100.00
34482;BME280;20720;48.886;9.388;2022-09-17T08:19:48;98067.22;;;11.84;100.00
34482;BME280;20720;48.886;9.388;2022-09-17T08:22:13;98059.72;;;11.44;100.00
34482;BME280;20720;48.886;9.388;2022-09-17T08:24:38;98059.34;;;11.40;100.00
34482;BME280;20720;48.886;9.388;2022-09-17T08:27:04;98060.03;;;11.60;100.00
34482;BME280;20720;48.886;9.388;2022-09-17T08:29:29;98055.53;;;11.74;100.00
34482;BME280;20720;48.886;9.388;2022-09-17T08:31:54;98061.03;;;12.21;100.00
34482;BME280;20720;48.886;9.388;2022-09-17T08:34:19;98060.03;;;11.98;100.00
34482;BME280;20720;48.886;9.388;2022-09-17T08:36:45;98066.53;;;12.81;100.00
34482;BME280;20720;48.886;9.388;2022-09-17T08:39:10;98084.69;;;12.53;100.00
34482;BME280;20720;48.886;9.388;2022-09-17T08:44:06;98090.09;;;12.08;100.00
34482;BME280;20720;48.886;9.388;2022-09-17T08:46:47;98091.31;;;13.16;100.00
34482;BME280;20720;48.886;9.388;2022-09-17T08:49:34;98095.50;;;13.53;100.00
34482;BME280;20720;48.886;9.388;2022-09-17T08:56:55;98138.06;;;14.04;100.00
34482;BME280;20720;48.886;9.388;2022-09-17T08:59:29;98145.19;;;13.74;100.00
34482;BME280;20720;48.886;9.388;2022-09-17T09:01:59;98142.47;;;14.22;100.00
34482;BME280;20720;48.886;9.388;2022-09-17T09:04:37;98157.25;;;13.52;100.00
34482;BME280;20720;48.886;9.388;2022-09-17T09:07:07;98153.22;;;14.39;100.00
34482;BME280;20720;48.886;9.388;2022-09-17T09:09:36;98151.22;;;14.23;100.00
34482;BME280;20720;48.886;9.388;2022-09-17T09:12:05;98149.34;;;14.53;100.00
34482;BME280;20720;48.886;9.388;2022-09-17T09:14:33;98144.41;;;14.79;100.00
34482;BME280;20720;48.886;9.388;2022-09-17T09:17:01;98146.72;;;13.82;100.00
34482;BME280;20720;48.886;9.388;2022-09-17T09:19:30;98140.25;;;14.49;100.00
34482;BME280;20720;48.886;9.388;2022-09-17T09:24:24;98141.78;;;13.19;100.00
34482;BME280;20720;48.886;9.388;2022-09-17T09:29:21;98122.00;;;14.17;100.00
34482;BME280;20720;48.886;9.388;2022-09-17T09:34:34;98129.34;;;14.91;100.00
34482;BME280;20720;48.886;9.388;2022-09-17T09:37:15;98132.88;;;15.20;100.00
34482;BME280;20720;48.886;9.388;2022-09-17T09:39:41;98138.59;;;13.83;100.00
34482;BME280;20720;48.886;9.388;2022-09-17T09:42:41;98135.25;;;13.58;100.00
34482;BME280;20720;48.886;9.388;2022-09-17T09:45:00;98128.88;;;14.60;100.00
34482;BME280;20720;48.886;9.388;2022-09-17T09:50:07;98138.53;;;15.63;100.00
34482;BME280;20720;48.886;9.388;2022-09-17T09:57:49;98161.28;;;14.14;100.00
34482;BME280;20720;48.886;9.388;2022-09-17T10:02:51;98148.88;;;14.67;100.00
34482;BME280;20720;48.886;9.388;2022-09-17T10:05:18;98149.25;;;14.82;100.00
34482;BME280;20720;48.886;9.388;2022-09-17T10:07:46;98152.13;;;14.81;100.00
34482;BME280;20720;48.886;9.388;2022-09-17T10:10:12;98155.59;;;14.93;100.00
34482;BME280;20720;48.886;9.388;2022-09-17T10:12:37;98151.41;;;15.20;100.00
34482;BME280;20720;48.886;9.388;2022-09-17T10:15:22;98146.69;;;15.73;100.00
34482;BME280;20720;48.886;9.388;2022-09-17T10:17:48;98157.56;;;15.60;100.00
34482;BME280;20720;48.886;9.388;2022-09-17T10:20:14;98157.69;;;15.54;100.00
34482;BME280;20720;48.886;9.388;2022-09-17T10:22:46;98162.38;;;15.63;100.00
34482;BME280;20720;48.886;9.388;2022-09-17T10:25:28;98172.00;;;16.87;100.00
34482;BME280;20720;48.886;9.388;2022-09-17T10:27:54;98183.06;;;18.25;100.00
34482;BME280;20720;48.886;9.388;2022-09-17T10:30:21;98185.34;;;17.68;100.00
34482;BME280;20720;48.886;9.388;2022-09-17T10:35:32;98187.53;;;16.78;100.00
34482;BME280;20720;48.886;9.388;2022-09-17T10:37:57;98183.50;;;16.76;100.00
34482;BME280;20720;48.886;9.388;2022-09-17T10:40:24;98191.53;;;16.48;100.00
34482;BME280;20720;48.886;9.388;2022-09-17T10:43:16;98186.50;;;15.78;100.00
34482;BME280;20720;48.886;9.388;2022-09-17T10:45:38;98183.53;;;16.03;100.00
34482;BME280;20720;48.886;9.388;2022-09-17T10:48:04;98191.63;;;15.68;100.00
34482;BME280;20720;48.886;9.388;2022-09-17T10:50:38;98191.41;;;15.58;100.00
34482;BME280;20720;48.886;9.388;2022-09-17T10:53:05;98187.59;;;17.76;100.00
34482;BME280;20720;48.886;9.388;2022-09-17T10:55:32;98189.69;;;19.23;84.17
34482;BME280;20720;48.886;9.388;2022-09-17T11:11:17;98185.78;;;16.84;98.22
34482;BME280;20720;48.886;9.388;2022-09-17T11:19:32;98189.19;;;17.18;92.71
34482;BME280;20720;48.886;9.388;2022-09-17T11:24:31;98193.31;;;20.05;78.24
34482;BME280;20720;48.886;9.388;2022-09-17T11:37:45;98177.25;;;16.21;100.00
34482;BME280;20720;48.886;9.388;2022-09-17T11:40:15;98183.66;;;16.69;100.00
34482;BME280;20720;48.886;9.388;2022-09-17T11:42:52;98175.38;;;16.66;100.00
34482;BME280;20720;48.886;9.388;2022-09-17T11:45:24;98181.25;;;16.68;100.00
34482;BME280;20720;48.886;9.388;2022-09-17T11:50:33;98190.28;;;15.54;100.00
34482;BME280;20720;48.886;9.388;2022-09-17T11:55:41;98191.88;;;15.95;100.00
34482;BME280;20720;48.886;9.388;2022-09-17T11:58:12;98186.47;;;16.18;100.00
34482;BME280;20720;48.886;9.388;2022-09-17T12:00:42;98190.47;;;17.53;100.00
34482;BME280;20720;48.886;9.388;2022-09-17T12:03:15;98181.56;;;18.98;91.22
34482;BME280;20720;48.886;9.388;2022-09-17T12:05:43;98178.41;;;18.69;93.16
34482;BME280;20720;48.886;9.388;2022-09-17T12:08:58;98173.00;;;18.32;92.48
34482;BME280;20720;48.886;9.388;2022-09-17T12:13:24;98166.19;;;16.24;100.00
34482;BME280;20720;48.886;9.388;2022-09-17T12:15:54;98155.06;;;15.82;100.00
34482;BME280;20720;48.886;9.388;2022-09-17T12:20:56;98153.53;;;19.94;86.25
34482;BME280;20720;48.886;9.388;2022-09-17T12:23:34;98154.19;;;19.54;82.24
34482;BME280;20720;48.886;9.388;2022-09-17T12:26:10;98159.16;;;18.89;80.58
34482;BME280;20720;48.886;9.388;2022-09-17T12:28:47;98162.78;;;18.19;86.66
34482;BME280;20720;48.886;9.388;2022-09-17T12:31:18;98158.28;;;19.77;76.27
34482;BME280;20720;48.886;9.388;2022-09-17T12:33:48;98141.69;;;18.66;79.15
34482;BME280;20720;48.886;9.388;2022-09-17T12:36:19;98147.78;;;19.50;77.37
34482;BME280;20720;48.886;9.388;2022-09-17T12:39:35;98164.41;;;19.20;77.09
34482;BME280;20720;48.886;9.388;2022-09-17T12:51:57;98159.97;;;21.33;71.44
34482;BME280;20720;48.886;9.388;2022-09-17T12:59:29;98162.63;;;21.38;71.58
34482;BME280;20720;48.886;9.388;2022-09-17T13:02:01;98168.25;;;18.98;78.96
34482;BME280;20720;48.886;9.388;2022-09-17T13:10:02;98166.81;;;19.27;84.75
34482;BME280;20720;48.886;9.388;2022-09-17T13:12:55;98176.44;;;18.91;80.19
34482;BME280;20720;48.886;9.388;2022-09-17T13:17:51;98193.53;;;18.95;80.08
34482;BME280;20720;48.886;9.388;2022-09-17T13:20:23;98188.69;;;19.76;75.23
34482;BME280;20720;48.886;9.388;2022-09-17T13:22:50;98202.31;;;18.11;84.66
34482;BME280;20720;48.886;9.388;2022-09-17T13:25:17;98185.41;;;17.73;87.14
34482;BME280;20720;48.886;9.388;2022-09-17T13:27:42;98201.50;;;17.07;89.30
34482;BME280;20720;48.886;9.388;2022-09-17T13:30:12;98194.75;;;17.00;97.99
34482;BME280;20720;48.886;9.388;2022-09-17T13:37:30;98182.84;;;17.02;91.54
34482;BME280;20720;48.886;9.388;2022-09-17T13:39:56;98182.06;;;18.58;80.17
34482;BME280;20720;48.886;9.388;2022-09-17T13:47:29;98194.47;;;18.79;79.11
34482;BME280;20720;48.886;9.388;2022-09-17T13:50:02;98183.75;;;18.69;86.07
34482;BME280;20720;48.886;9.388;2022-09-17T13:52:33;98195.66;;;18.08;86.97
34482;BME280;20720;48.886;9.388;2022-09-17T13:54:59;98192.19;;;18.61;85.25
34482;BME280;20720;48.886;9.388;2022-09-17T13:57:25;98188.13;;;18.53;84.63
34482;BME280;20720;48.886;9.388;2022-09-17T13:59:52;98192.34;;;17.36;91.10
34482;BME280;20720;48.886;9.388;2022-09-17T14:09:48;98194.41;;;17.67;95.64
34482;BME280;20720;48.886;9.388;2022-09-17T14:14:58;98189.00;;;16.86;97.99
34482;BME280;20720;48.886;9.388;2022-09-17T14:20:07;98189.13;;;17.72;95.40
34482;BME280;20720;48.886;9.388;2022-09-17T14:22:33;98198.19;;;18.25;94.02
34482;BME280;20720;48.886;9.388;2022-09-17T14:24:58;98197.16;;;18.84;89.08
34482;BME280;20720;48.886;9.388;2022-09-17T14:30:15;98194.44;;;21.40;71.27
34482;BME280;20720;48.886;9.388;2022-09-17T14:33:00;98187.72;;;21.42;70.69
34482;BME280;20720;48.886;9.388;2022-09-17T14:38:38;98193.28;;;17.25;90.74
34482;BME280;20720;48.886;9.388;2022-09-17T14:40:44;98179.34;;;17.56;93.20
34482;BME280;20720;48.886;9.388;2022-09-17T14:43:14;98184.31;;;16.93;93.60
34482;BME280;20720;48.886;9.388;2022-09-17T14:45:42;98188.81;;;16.76;100.00
34482;BME280;20720;48.886;9.388;2022-09-17T14:48:27;98172.72;;;18.29;87.69
34482;BME280;20720;48.886;9.388;2022-09-17T14:53:37;98174.50;;;17.97;86.09
34482;BME280;20720;48.886;9.388;2022-09-17T14:56:02;98166.41;;;18.08;85.96
34482;BME280;20720;48.886;9.388;2022-09-17T14:58:29;98163.44;;;15.90;100.00
34482;BME280;20720;48.886;9.388;2022-09-17T15:00:56;98168.34;;;16.27;100.00
34482;BME280;20720;48.886;9.388;2022-09-17T15:03:22;98167.13;;;16.18;100.00
34482;BME280;20720;48.886;9.388;2022-09-17T15:05:48;98174.81;;;15.74;100.00
34482;BME280;20720;48.886;9.388;2022-09-17T15:08:17;98162.50;;;15.96;100.00
34482;BME280;20720;48.886;9.388;2022-09-17T15:13:10;98159.81;;;16.41;100.00
34482;BME280;20720;48.886;9.388;2022-09-17T15:15:37;98159.25;;;18.67;92.99
34482;BME280;20720;48.886;9.388;2022-09-17T15:18:03;98165.38;;;17.88;88.54
34482;BME280;20720;48.886;9.388;2022-09-17T15:20:29;98158.72;;;16.87;100.00
34482;BME280;20720;48.886;9.388;2022-09-17T15:25:22;98161.13;;;17.05;96.19
34482;BME280;20720;48.886;9.388;2022-09-17T15:27:51;98158.50;;;17.27;100.00
34482;BME280;20720;48.886;9.388;2022-09-17T15:30:18;98164.75;;;16.99;99.18
34482;BME280;20720;48.886;9.388;2022-09-17T15:32:50;98156.59;;;16.23;100.00
34482;BME280;20720;48.886;9.388;2022-09-17T15:35:17;98158.97;;;16.08;100.00
34482;BME280;20720;48.886;9.388;2022-09-17T15:37:43;98148.69;;;15.94;100.00
34482;BME280;20720;48.886;9.388;2022-09-17T15:40:13;98159.28;;;15.66;100.00
34482;BME280;20720;48.886;9.388;2022-09-17T15:42:39;98161.28;;;15.25;100.00